Time;durP1;ratioP1;P1;durP2;ratioP2;P2;SDS_P1;SDS_P2;PMS_P1;PMS_P2;Temp;Humidity;BMP_temperature;BMP_pressure;BME280_temperature;BME280_humidity;BME280_pressure;Samples;Min_cycle;Max_cycle;Signal;HPM_P1;HPM_P2
2021/12/26 00:01:26;;;;;;;32.38;18.73;;;;;;;10.67;93.23;99859.72;4937183;29;20074;-67
2021/12/26 00:03:54;;;;;;;32.38;19.05;;;;;;;10.57;94.12;99857.38;4939800;28;20063;-66
2021/12/26 00:06:28;;;;;;;33.83;19.25;;;;;;;10.46;94.53;99860.84;4938222;29;20453;-66
2021/12/26 00:08:58;;;;;;;32.50;18.85;;;;;;;10.75;93.75;99863.56;4938262;29;20048;-66
2021/12/26 00:11:25;;;;;;;34.33;18.85;;;;;;;10.59;94.41;99857.84;4936970;29;20445;-65
2021/12/26 00:13:54;;;;;;;33.60;18.60;;;;;;;10.56;94.12;99857.69;4937353;29;20055;-66
2021/12/26 00:16:23;;;;;;;34.63;19.58;;;;;;;10.53;94.72;99853.66;4936976;29;20507;-66
2021/12/26 00:18:50;;;;;;;31.58;18.02;;;;;;;10.36;95.00;99852.94;4937015;29;20063;-66
2021/12/26 00:21:21;;;;;;;31.00;19.08;;;;;;;10.34;95.55;99867.06;4938089;29;20063;-68
2021/12/26 00:23:49;;;;;;;37.25;19.42;;;;;;;10.30;96.20;99852.38;4920978;29;20178;-68
2021/12/26 00:26:16;;;;;;;33.92;19.73;;;;;;;10.55;94.47;99856.09;4937987;29;20062;-66
2021/12/26 00:28:44;;;;;;;30.83;18.73;;;;;;;10.58;94.41;99844.41;4937894;29;20055;-65
2021/12/26 00:31:11;;;;;;;30.45;19.55;;;;;;;10.48;94.81;99836.56;4937963;29;20059;-65
2021/12/26 00:33:39;;;;;;;28.38;18.23;;;;;;;10.38;94.86;99839.66;4937900;29;20507;-67
2021/12/26 00:36:06;;;;;;;29.35;18.08;;;;;;;10.75;93.88;99828.56;4937967;29;20048;-67
2021/12/26 00:38:34;;;;;;;29.45;18.38;;;;;;;10.33;94.43;99834.34;4938008;29;20055;-66
2021/12/26 00:41:01;;;;;;;28.38;17.92;;;;;;;10.35;94.92;99835.66;4938031;29;20063;-66
2021/12/26 00:43:29;;;;;;;29.58;17.60;;;;;;;10.46;94.46;99831.34;4920677;29;20428;-67
2021/12/26 00:45:56;;;;;;;27.52;18.30;;;;;;;10.36;94.57;99826.25;4936667;29;20055;-67
2021/12/26 00:48:24;;;;;;;28.38;17.10;;;;;;;10.49;94.11;99832.66;4936808;29;20059;-67
2021/12/26 00:50:51;;;;;;;25.75;17.15;;;;;;;10.58;93.67;99833.41;4937898;29;20462;-66
2021/12/26 00:53:19;;;;;;;27.73;18.00;;;;;;;10.38;93.14;99836.91;4936331;29;20392;-66
2021/12/26 00:55:48;;;;;;;26.60;17.17;;;;;;;10.45;93.42;99834.44;4936390;29;20063;-67
2021/12/26 00:58:15;;;;;;;25.55;17.27;;;;;;;10.50;92.72;99837.81;4936809;29;20051;-67
2021/12/26 01:00:44;;;;;;;25.42;16.48;;;;;;;10.74;91.39;99831.66;4940614;29;20062;-67
2021/12/26 01:03:13;;;;;;;25.80;16.70;;;;;;;10.36;92.63;99833.69;4941291;29;20059;-67
2021/12/26 01:05:43;;;;;;;25.83;17.08;;;;;;;10.44;92.63;99839.16;4924715;29;20062;-67
2021/12/26 01:08:13;;;;;;;25.35;16.80;;;;;;;10.61;92.29;99843.75;4923793;29;20056;-67
2021/12/26 01:10:54;;;;;;;28.17;17.02;;;;;;;10.47;91.75;99841.25;4940391;29;20063;-67
2021/12/26 01:13:37;;;;;;;25.60;17.67;;;;;;;10.38;92.75;99837.72;4939516;29;20090;-66
2021/12/26 01:16:19;;;;;;;23.92;17.20;;;;;;;10.43;92.80;99843.03;4927410;29;20063;-67
2021/12/26 01:18:52;;;;;;;26.33;17.60;;;;;;;10.46;92.87;99844.34;4940139;29;20056;-66
2021/12/26 01:21:22;;;;;;;25.17;17.58;;;;;;;10.42;93.57;99835.13;4941390;29;20062;-68
2021/12/26 01:23:57;;;;;;;24.90;17.02;;;;;;;10.57;92.74;99840.03;4939720;29;20135;-66
2021/12/26 01:26:25;;;;;;;26.63;17.75;;;;;;;10.60;92.15;99834.66;4941078;29;20051;-66
2021/12/26 01:28:53;;;;;;;27.70;18.80;;;;;;;10.63;92.13;99838.69;4939692;29;20056;-66
2021/12/26 01:31:21;;;;;;;28.00;18.58;;;;;;;10.67;91.92;99837.69;4939629;29;20059;-67
2021/12/26 01:34:04;;;;;;;28.90;19.05;;;;;;;10.58;92.57;99831.47;4939291;29;20059;-67
2021/12/26 01:36:43;;;;;;;26.77;18.98;;;;;;;10.53;92.35;99830.84;4940952;29;20051;-67
2021/12/26 01:39:23;;;;;;;25.15;18.15;;;;;;;10.46;92.40;99830.56;4939684;29;20060;-66
2021/12/26 01:42:10;;;;;;;27.98;18.20;;;;;;;10.43;92.76;99831.22;4941019;29;20048;-68
2021/12/26 01:44:50;;;;;;;33.55;19.80;;;;;;;10.22;93.93;99824.91;4939445;29;20056;-66
2021/12/26 01:47:21;;;;;;;28.17;19.60;;;;;;;10.36;93.67;99825.44;4939375;29;20500;-67
2021/12/26 01:49:49;;;;;;;24.70;17.45;;;;;;;10.41;93.87;99817.00;4939554;29;20731;-67
2021/12/26 01:52:17;;;;;;;26.73;17.92;;;;;;;10.44;93.49;99819.06;4939380;29;20062;-67
2021/12/26 01:54:48;;;;;;;27.55;17.15;;;;;;;10.50;92.70;99824.03;4938975;29;20411;-67
2021/12/26 01:57:17;;;;;;;27.23;17.67;;;;;;;10.40;92.88;99823.63;4939132;29;20059;-68
2021/12/26 01:59:47;;;;;;;26.20;16.48;;;;;;;10.34;93.51;99827.72;4939146;29;20514;-66
2021/12/26 02:02:22;;;;;;;24.25;17.17;;;;;;;10.51;92.78;99833.94;4935256;29;20052;-67
2021/12/26 02:04:50;;;;;;;28.10;17.23;;;;;;;10.50;92.69;99839.75;4920143;29;20052;-66
2021/12/26 02:07:22;;;;;;;27.48;17.20;;;;;;;10.47;92.97;99838.50;4919869;29;20063;-66
2021/12/26 02:09:51;;;;;;;32.07;17.87;;;;;;;10.57;92.59;99845.53;4919609;29;20060;-66
2021/12/26 02:12:21;;;;;;;24.45;17.05;;;;;;;10.49;93.36;99846.41;4919895;29;20063;-67
2021/12/26 02:14:49;;;;;;;25.52;16.95;;;;;;;10.68;92.69;99844.81;4919790;29;20059;-66
2021/12/26 02:17:35;;;;;;;28.90;17.88;;;;;;;10.76;92.63;99838.44;4919772;29;20048;-66
2021/12/26 02:20:13;;;;;;;25.45;17.20;;;;;;;10.45;92.89;99839.94;4921180;29;20067;-66
2021/12/26 02:22:45;;;;;;;25.75;17.15;;;;;;;10.38;93.89;99836.91;4919918;29;20411;-67
2021/12/26 02:25:28;;;;;;;24.65;17.10;;;;;;;10.40;93.71;99837.41;4921023;29;20060;-67
2021/12/26 02:27:56;;;;;;;27.40;18.52;;;;;;;10.47;93.47;99837.66;4920085;29;20062;-67
2021/12/26 02:30:23;;;;;;;26.45;17.92;;;;;;;10.29;94.40;99830.69;4919782;29;20439;-66
2021/12/26 02:32:53;;;;;;;26.08;17.63;;;;;;;10.50;94.12;99839.75;4904466;29;20059;-66
2021/12/26 02:35:21;;;;;;;25.13;17.38;;;;;;;10.52;93.42;99835.53;4919526;29;20503;-66
2021/12/26 02:37:49;;;;;;;26.05;17.13;;;;;;;10.36;93.33;99829.00;4888800;29;20440;-66
2021/12/26 02:40:17;;;;;;;24.83;16.90;;;;;;;10.53;93.55;99826.13;4919323;29;20079;-67
2021/12/26 02:42:45;;;;;;;26.73;17.75;;;;;;;10.47;93.13;99823.91;4920630;29;20052;-66
2021/12/26 02:45:13;;;;;;;24.83;16.65;;;;;;;10.52;93.18;99815.44;4920443;29;20055;-67
2021/12/26 02:47:43;;;;;;;24.08;16.00;;;;;;;10.56;92.51;99817.22;4919515;29;20500;-67
2021/12/26 02:50:15;;;;;;;22.67;15.65;;;;;;;10.56;92.57;99813.66;4919566;29;20059;-67
2021/12/26 02:52:43;;;;;;;21.65;14.73;;;;;;;10.37;92.88;99816.88;4920614;29;20338;-66
2021/12/26 02:55:12;;;;;;;23.30;14.88;;;;;;;10.52;93.07;99812.69;4919236;29;20133;-66
2021/12/26 02:57:40;;;;;;;23.90;15.35;;;;;;;10.51;92.76;99817.41;4920242;29;20059;-67
2021/12/26 03:00:10;;;;;;;23.73;15.57;;;;;;;10.44;92.45;99821.84;4920561;29;20056;-66
2021/12/26 03:02:42;;;;;;;23.33;15.80;;;;;;;10.42;92.67;99813.09;4925497;29;20051;-67
2021/12/26 03:05:12;;;;;;;24.55;16.05;;;;;;;10.31;94.00;99817.38;4938401;29;20052;-67
2021/12/26 03:07:40;;;;;;;22.00;15.60;;;;;;;10.40;94.07;99820.88;4954097;28;20048;-66
2021/12/26 03:10:16;;;;;;;24.77;16.30;;;;;;;10.26;94.51;99823.06;4939282;29;20060;-66
2021/12/26 03:12:43;;;;;;;20.98;14.98;;;;;;;10.32;93.95;99816.25;4922157;29;20065;-66
2021/12/26 03:15:11;;;;;;;24.52;15.82;;;;;;;10.30;94.04;99824.03;4939727;29;20063;-66
2021/12/26 03:17:38;;;;;;;24.40;15.70;;;;;;;10.18;94.34;99816.50;4939251;29;20431;-66
2021/12/26 03:20:15;;;;;;;21.17;14.70;;;;;;;10.09;94.75;99816.50;4953844;29;20067;-66
2021/12/26 03:22:45;;;;;;;25.60;16.08;;;;;;;10.14;95.31;99818.28;4938107;29;20055;-66
2021/12/26 03:25:14;;;;;;;22.38;15.45;;;;;;;10.13;95.01;99814.72;4937498;29;20063;-67
2021/12/26 03:27:42;;;;;;;22.23;15.52;;;;;;;10.07;95.18;99827.03;4936990;29;20048;-66
2021/12/26 03:30:13;;;;;;;23.02;15.45;;;;;;;10.21;95.45;99810.31;4938066;29;20048;-66
2021/12/26 03:32:41;;;;;;;22.50;14.82;;;;;;;10.10;95.48;99814.59;4937733;29;20052;-66
2021/12/26 03:35:09;;;;;;;24.10;15.45;;;;;;;10.14;95.71;99818.28;4937688;29;20063;-66
2021/12/26 03:37:38;;;;;;;22.73;16.05;;;;;;;10.20;95.27;99811.44;4937568;29;20073;-68
2021/12/26 03:40:18;;;;;;;22.50;16.17;;;;;;;10.28;94.80;99813.34;4937301;29;20051;-67
2021/12/26 03:42:46;;;;;;;23.38;16.42;;;;;;;10.33;94.24;99820.59;4937124;29;20075;-66
2021/12/26 03:45:30;;;;;;;24.52;16.45;;;;;;;10.31;93.98;99812.69;4937295;29;20055;-66
2021/12/26 03:47:58;;;;;;;24.35;16.50;;;;;;;10.45;93.34;99816.00;4937177;29;20059;-66
2021/12/26 03:50:28;;;;;;;22.38;15.13;;;;;;;10.32;93.54;99814.28;4937305;29;20059;-67
2021/12/26 03:52:57;;;;;;;;;;;;;;;10.28;93.77;99810.59;4939101;29;20056;-66
2021/12/26 03:55:25;;;;;;;23.07;15.87;;;;;;;10.25;93.82;99802.19;4921504;29;19934;-67
2021/12/26 03:57:54;;;;;;;22.55;15.73;;;;;;;10.28;94.45;99794.09;4937144;29;20063;-67
2021/12/26 04:00:23;;;;;;;22.77;15.95;;;;;;;10.30;94.28;99805.56;4937324;29;20062;-66
2021/12/26 04:02:51;;;;;;;23.65;16.40;;;;;;;10.26;93.97;99806.56;4929261;29;20056;-65
2021/12/26 04:05:19;;;;;;;25.33;16.00;;;;;;;10.35;94.12;99804.56;4918022;29;20059;-67
2021/12/26 04:07:46;;;;;;;22.10;15.93;;;;;;;10.45;93.28;99799.47;4918230;29;20052;-66
2021/12/26 04:10:17;;;;;;;21.38;15.38;;;;;;;10.50;92.85;99801.19;4917895;29;20385;-67
2021/12/26 04:12:48;;;;;;;24.73;15.57;;;;;;;10.60;92.59;99798.84;4902215;29;20079;-67
2021/12/26 04:15:19;;;;;;;22.67;17.10;;;;;;;10.45;93.26;99793.16;4917613;29;20075;-67
2021/12/26 04:17:49;;;;;;;23.55;16.15;;;;;;;10.39;93.54;99787.03;4902396;29;20052;-67
2021/12/26 04:20:16;;;;;;;22.48;16.88;;;;;;;10.36;93.53;99782.19;4919108;29;20063;-67
2021/12/26 04:22:44;;;;;;;24.90;16.23;;;;;;;10.15;94.14;99784.13;4919345;29;20087;-66
2021/12/26 04:25:11;;;;;;;24.98;17.38;;;;;;;10.23;94.48;99781.31;4916617;29;20052;-66
2021/12/26 04:27:38;;;;;;;23.40;16.65;;;;;;;10.37;94.19;99781.06;4917645;29;20082;-66
2021/12/26 04:30:11;;;;;;;24.75;17.52;;;;;;;10.36;94.18;99784.13;4918017;29;20060;-66
2021/12/26 04:32:39;;;;;;;24.88;17.08;;;;;;;10.42;93.01;99783.63;4918019;29;20052;-66
2021/12/26 04:35:07;;;;;;;24.42;16.75;;;;;;;10.43;93.23;99778.91;4901171;29;20060;-68
2021/12/26 04:37:34;;;;;;;31.25;17.67;;;;;;;10.29;93.64;99784.69;4917563;29;20518;-67
2021/12/26 04:40:07;;;;;;;23.33;16.45;;;;;;;10.42;93.88;99791.06;4902166;29;20059;-67
2021/12/26 04:42:52;;;;;;;27.58;16.65;;;;;;;10.57;92.72;99784.97;4917622;29;20056;-66
2021/12/26 04:45:41;;;;;;;25.33;16.88;;;;;;;10.45;93.13;99780.19;4918365;29;20052;-66
2021/12/26 04:48:44;;;;;;;25.05;16.90;;;;;;;10.49;93.55;99774.81;4918653;29;20048;-66
2021/12/26 04:51:13;;;;;;;25.67;16.77;;;;;;;10.28;94.06;99776.75;4917629;29;20071;-66
2021/12/26 04:53:42;;;;;;;25.33;18.10;;;;;;;10.29;94.59;99779.16;4917846;29;20048;-66
2021/12/26 04:56:09;;;;;;;25.52;16.80;;;;;;;10.38;94.44;99777.16;4917136;29;20064;-66
2021/12/26 04:58:37;;;;;;;26.67;18.10;;;;;;;10.49;94.31;99772.88;4917382;29;20052;-66
2021/12/26 05:01:05;;;;;;;25.10;17.30;;;;;;;10.53;93.62;99771.06;4886406;29;20067;-66
2021/12/26 05:03:33;;;;;;;21.92;15.82;;;;;;;10.27;94.51;99767.69;4931922;29;20055;-67
2021/12/26 05:06:00;;;;;;;21.92;15.75;;;;;;;10.02;96.01;99763.94;4937399;29;20055;-66
2021/12/26 05:08:28;;;;;;;26.75;16.42;;;;;;;10.12;96.51;99763.59;4936211;29;20055;-66
2021/12/26 05:10:56;;;;;;;25.67;16.42;;;;;;;10.19;96.27;99763.06;4937640;29;20128;-67
2021/12/26 05:13:24;;;;;;;21.40;15.45;;;;;;;10.29;95.79;99759.13;4937431;29;20059;-66
2021/12/26 05:15:51;;;;;;;22.60;15.45;;;;;;;10.24;95.64;99762.84;4936300;29;20055;-66
2021/12/26 05:18:19;;;;;;;21.55;15.30;;;;;;;10.46;94.98;99759.78;4937592;29;20380;-66
2021/12/26 05:20:52;;;;;;;20.02;14.88;;;;;;;10.39;94.72;99770.50;4935813;29;20051;-65
2021/12/26 05:23:19;;;;;;;21.13;14.23;;;;;;;10.43;94.95;99770.66;4952135;29;20531;-67
2021/12/26 05:25:46;;;;;;;19.17;14.48;;;;;;;10.34;94.74;99761.69;4935907;29;20054;-67
2021/12/26 05:28:13;;;;;;;20.08;14.68;;;;;;;10.32;94.82;99763.94;4936075;29;20086;-67
2021/12/26 05:30:42;;;;;;;23.30;15.00;;;;;;;10.29;94.97;99765.41;4936121;29;20054;-66
2021/12/26 05:33:16;;;;;;;19.52;13.98;;;;;;;10.37;94.62;99756.31;4936416;29;20058;-67
2021/12/26 05:35:44;;;;;;;20.88;14.32;;;;;;;10.13;95.30;99756.13;4936056;29;20627;-66
2021/12/26 05:38:12;;;;;;;22.35;15.75;;;;;;;10.10;96.10;99757.63;4937454;29;20634;-66
2021/12/26 05:40:43;;;;;;;20.15;14.93;;;;;;;10.08;96.63;99750.78;4935854;29;20059;-67
2021/12/26 05:43:11;;;;;;;22.73;15.38;;;;;;;10.14;96.67;99746.75;4936131;29;20056;-66
2021/12/26 05:45:38;;;;;;;22.25;15.65;;;;;;;10.03;97.13;99753.72;4952369;28;20056;-66
2021/12/26 05:48:18;;;;;;;23.58;15.93;;;;;;;9.95;97.24;99755.41;4940793;29;20051;-67
2021/12/26 05:50:46;;;;;;;22.85;15.50;;;;;;;9.93;97.69;99757.69;4939590;29;20055;-66
2021/12/26 05:53:36;;;;;;;22.80;15.80;;;;;;;9.91;98.18;99753.66;4940620;29;20050;-67
2021/12/26 05:56:04;;;;;;;24.23;15.45;;;;;;;9.93;98.31;99754.13;4938429;29;20063;-66
2021/12/26 05:58:33;;;;;;;20.25;14.75;;;;;;;9.80;98.58;99758.72;4939375;29;20088;-66
2021/12/26 06:01:01;;;;;;;20.58;15.18;;;;;;;9.79;98.91;99764.56;4939137;29;20060;-67
2021/12/26 06:03:28;;;;;;;21.90;15.18;;;;;;;9.87;99.54;99755.44;4927381;29;20115;-66
2021/12/26 06:05:57;;;;;;;19.73;14.80;;;;;;;9.98;98.77;99759.44;4919857;29;20052;-66
2021/12/26 06:08:32;;;;;;;20.70;14.40;;;;;;;10.04;97.91;99752.63;4920303;29;20044;-66
2021/12/26 06:11:00;;;;;;;19.77;14.80;;;;;;;10.05;97.88;99757.78;4920059;29;20056;-67
2021/12/26 06:13:29;;;;;;;19.83;14.07;;;;;;;10.13;97.29;99758.88;4919844;29;20060;-67
2021/12/26 06:15:56;;;;;;;21.13;14.68;;;;;;;10.15;97.14;99760.16;4919854;29;20056;-67
2021/12/26 06:18:24;;;;;;;19.27;14.10;;;;;;;10.26;96.54;99759.75;4919867;29;20052;-67
2021/12/26 06:21:10;;;;;;;19.33;14.30;;;;;;;10.39;95.90;99759.50;4921234;29;20048;-66
2021/12/26 06:23:50;;;;;;;19.58;13.85;;;;;;;10.29;95.84;99759.91;4921087;29;20052;-66
2021/12/26 06:26:38;;;;;;;21.58;14.32;;;;;;;10.41;95.44;99764.69;4900697;29;20063;-66
2021/12/26 06:29:40;;;;;;;19.20;14.02;;;;;;;10.54;94.75;99752.59;4920838;29;20052;-66
2021/12/26 06:32:30;;;;;;;21.23;13.23;;;;;;;10.59;94.18;99761.47;4920756;29;20060;-66
2021/12/26 06:35:15;;;;;;;17.20;13.02;;;;;;;10.50;94.11;99754.41;4920773;29;20056;-66
2021/12/26 06:38:12;;;;;;;18.23;13.63;;;;;;;10.89;93.40;99751.16;4901800;29;20136;-66
2021/12/26 06:41:06;;;;;;;18.52;13.23;;;;;;;10.94;92.36;99751.75;4912652;29;20060;-67
2021/12/26 06:44:03;;;;;;;18.63;13.43;;;;;;;10.83;91.97;99753.31;4902461;29;20064;-67
2021/12/26 06:46:50;;;;;;;17.52;12.40;;;;;;;10.71;92.48;99750.50;4913534;29;20056;-66
2021/12/26 06:49:25;;;;;;;17.05;13.13;;;;;;;10.61;92.89;99748.16;4904788;29;20408;-69
2021/12/26 06:51:53;;;;;;;18.65;13.52;;;;;;;10.53;93.21;99746.28;4903651;29;20094;-67
2021/12/26 06:54:20;;;;;;;20.27;14.38;;;;;;;10.78;93.33;99749.94;4919512;29;20512;-67
2021/12/26 06:56:49;;;;;;;17.65;13.18;;;;;;;10.76;92.55;99753.03;4920032;29;20055;-67
2021/12/26 06:59:17;;;;;;;21.00;12.80;;;;;;;10.67;92.49;99746.03;4903571;29;20059;-67
2021/12/26 07:01:44;;;;;;;18.80;13.60;;;;;;;10.34;94.42;99751.44;4919255;29;20056;-67
2021/12/26 07:04:15;;;;;;;19.33;13.73;;;;;;;10.33;95.48;99749.84;4938056;29;20054;-68
2021/12/26 07:06:43;;;;;;;20.58;15.00;;;;;;;10.69;94.69;99752.78;4937868;29;20056;-67
2021/12/26 07:09:20;;;;;;;18.77;13.88;;;;;;;10.62;93.23;99747.00;4937911;29;20099;-66
2021/12/26 07:11:47;;;;;;;18.48;13.55;;;;;;;10.52;93.75;99743.88;4937932;29;20055;-66
2021/12/26 07:14:27;;;;;;;19.08;14.65;;;;;;;10.72;93.67;99751.31;4937895;29;20059;-66
2021/12/26 07:16:55;;;;;;;17.83;12.90;;;;;;;10.62;93.36;99751.72;4937757;29;20051;-66
2021/12/26 07:19:23;;;;;;;20.02;14.10;;;;;;;10.66;93.91;99749.91;4937986;29;20403;-67
2021/12/26 07:21:51;;;;;;;19.88;14.02;;;;;;;10.59;93.82;99753.19;4938188;29;20150;-69
2021/12/26 07:24:18;;;;;;;20.50;14.07;;;;;;;10.52;94.49;99768.63;4937798;29;20055;-68
2021/12/26 07:26:46;;;;;;;22.23;15.48;;;;;;;10.62;94.49;99762.72;4953550;28;20047;-69
2021/12/26 07:29:39;;;;;;;22.60;15.23;;;;;;;10.65;94.12;99759.31;4922871;29;20051;-68
2021/12/26 07:32:07;;;;;;;22.15;14.63;;;;;;;10.73;94.46;99762.00;4937939;29;20062;-68
2021/12/26 07:34:35;;;;;;;20.80;14.02;;;;;;;10.69;93.82;99758.28;4937511;29;20059;-69
2021/12/26 07:37:03;;;;;;;26.45;15.10;;;;;;;10.43;95.12;99765.13;4937456;29;20060;-68
2021/12/26 07:39:36;;;;;;;22.40;14.00;;;;;;;10.43;95.79;99765.13;4937371;29;20044;-69
2021/12/26 07:42:04;;;;;;;22.92;15.07;;;;;;;10.51;95.47;99769.78;4937410;29;20058;-69
2021/12/26 07:44:50;;;;;;;25.02;14.95;;;;;;;10.56;95.36;99764.91;4938958;29;20052;-69
2021/12/26 07:47:44;;;;;;;25.88;15.05;;;;;;;10.65;95.64;99756.56;4937415;29;20133;-68
2021/12/26 07:50:11;;;;;;;29.63;14.85;;;;;;;10.68;95.16;99762.19;4937309;29;20511;-68
2021/12/26 07:53:06;;;;;;;20.98;13.93;;;;;;;10.90;94.55;99759.06;4939093;29;20538;-69
2021/12/26 07:55:51;;;;;;;22.48;13.80;;;;;;;10.88;93.64;99766.09;4952081;28;20062;-69
2021/12/26 07:58:37;;;;;;;28.40;14.75;;;;;;;10.89;93.91;99767.69;4937101;29;20051;-69
2021/12/26 08:01:27;;;;;;;24.15;14.30;;;;;;;10.82;94.21;99768.25;4938430;29;20052;-69
2021/12/26 08:04:15;;;;;;;25.33;13.88;;;;;;;11.00;93.66;99780.69;4918766;29;20067;-69
2021/12/26 08:07:18;;;;;;;23.95;14.50;;;;;;;10.92;93.57;99776.06;4907899;29;20048;-69
2021/12/26 08:09:46;;;;;;;24.75;13.55;;;;;;;10.68;94.66;99770.47;4901848;29;20059;-70
2021/12/26 08:12:14;;;;;;;26.65;15.15;;;;;;;10.79;95.17;99773.63;4918065;29;20174;-69
2021/12/26 08:14:41;;;;;;;26.70;14.63;;;;;;;10.84;94.78;99771.47;4918070;29;20044;-69
2021/12/26 08:17:08;;;;;;;22.13;14.43;;;;;;;10.87;95.06;99780.97;4919497;29;20079;-69
2021/12/26 08:19:36;;;;;;;27.60;15.20;;;;;;;10.87;94.48;99772.72;4919371;29;20509;-70
2021/12/26 08:22:03;;;;;;;25.17;14.02;;;;;;;10.77;95.56;99776.72;4918038;29;20059;-69
2021/12/26 08:24:30;;;;;;;26.38;14.88;;;;;;;10.83;95.75;99780.03;4918145;29;20052;-69
2021/12/26 08:26:58;;;;;;;27.38;15.40;;;;;;;10.83;96.14;99783.59;4918819;29;20051;-69
2021/12/26 08:29:25;;;;;;;25.67;15.75;;;;;;;11.01;95.17;99782.31;4918845;29;20059;-69
2021/12/26 08:31:55;;;;;;;25.35;15.80;;;;;;;10.72;96.48;99782.41;4917807;29;20063;-69
2021/12/26 08:34:23;;;;;;;29.40;17.42;;;;;;;10.79;96.18;99782.66;4919194;29;20056;-69
2021/12/26 08:37:02;;;;;;;28.33;15.57;;;;;;;10.95;96.03;99789.16;4917649;29;20075;-68
2021/12/26 08:39:35;;;;;;;30.55;14.70;;;;;;;10.99;95.42;99787.34;4919213;29;20044;-68
2021/12/26 08:42:03;;;;;;;28.60;15.75;;;;;;;10.99;95.47;99790.13;4919010;29;20060;-69
2021/12/26 08:44:32;;;;;;;27.42;14.10;;;;;;;11.28;94.33;99781.69;4918287;29;20052;-69
2021/12/26 08:47:04;;;;;;;26.63;14.88;;;;;;;11.04;94.13;99792.66;4918836;29;20056;-70
2021/12/26 08:49:38;;;;;;;28.90;15.95;;;;;;;10.91;94.98;99799.25;4918726;29;20056;-69
2021/12/26 08:52:06;;;;;;;31.60;15.75;;;;;;;11.13;94.56;99800.84;4918809;29;20052;-69
2021/12/26 08:54:35;;;;;;;28.92;15.38;;;;;;;11.42;93.62;99797.94;4917571;29;20059;-69
2021/12/26 08:57:06;;;;;;;25.13;14.75;;;;;;;11.42;92.84;99800.69;4917122;29;20530;-69
2021/12/26 08:59:34;;;;;;;24.67;13.63;;;;;;;11.23;93.31;99800.41;4917422;29;20404;-69
2021/12/26 09:02:03;;;;;;;22.75;13.85;;;;;;;11.24;93.84;99802.81;4918823;29;20059;-69
2021/12/26 09:04:30;;;;;;;26.70;13.77;;;;;;;11.19;94.24;99805.00;4936648;29;20056;-70
2021/12/26 09:06:58;;;;;;;21.50;13.18;;;;;;;11.31;93.88;99808.59;4937410;29;20059;-69
2021/12/26 09:09:27;;;;;;;21.55;12.25;;;;;;;11.43;93.56;99807.81;4937520;29;20499;-69
2021/12/26 09:11:56;;;;;;;19.70;13.23;;;;;;;11.34;93.40;99818.94;4920273;29;20542;-69
2021/12/26 09:14:26;;;;;;;21.80;12.63;;;;;;;11.38;93.47;99814.34;4937847;28;20052;-69
2021/12/26 09:16:53;;;;;;;25.95;12.80;;;;;;;11.39;93.22;99820.69;4937310;29;20491;-69
2021/12/26 09:19:20;;;;;;;23.15;13.00;;;;;;;11.42;93.57;99824.72;4937679;29;20075;-69
2021/12/26 09:21:49;;;;;;;23.60;13.20;;;;;;;11.43;93.53;99824.38;4941129;29;20056;-69
2021/12/26 09:24:16;;;;;;;23.83;12.77;;;;;;;11.55;92.69;99823.59;4941392;29;20055;-69
2021/12/26 09:26:46;;;;;;;23.90;13.40;;;;;;;11.53;92.66;99828.63;4940788;29;20058;-69
2021/12/26 09:29:17;;;;;;;30.63;13.90;;;;;;;11.54;92.85;99822.78;4939739;29;20050;-69
2021/12/26 09:31:45;;;;;;;24.30;13.38;;;;;;;11.58;92.84;99826.47;4939760;29;20051;-69
2021/12/26 09:34:14;;;;;;;22.38;12.02;;;;;;;11.58;92.45;99831.97;4940976;29;20399;-68
2021/12/26 09:36:43;;;;;;;18.63;10.87;;;;;;;11.57;92.57;99826.81;4939562;29;20054;-69
2021/12/26 09:39:11;;;;;;;18.90;11.05;;;;;;;11.77;91.60;99825.97;4939599;29;20062;-69
2021/12/26 09:41:38;;;;;;;18.52;10.35;;;;;;;11.54;91.84;99831.03;4941141;29;20052;-68
2021/12/26 09:44:07;;;;;;;18.60;10.23;;;;;;;11.61;92.09;99831.28;4941336;29;20066;-69
2021/12/26 09:46:35;;;;;;;18.40;9.63;;;;;;;11.74;91.82;99832.16;4940746;29;20055;-69
2021/12/26 09:49:03;;;;;;;15.88;9.63;;;;;;;11.85;91.53;99830.56;4939707;29;20067;-69
2021/12/26 09:51:31;;;;;;;18.20;10.20;;;;;;;11.75;91.40;99831.03;4939377;29;20056;-70
2021/12/26 09:53:58;;;;;;;21.95;11.75;;;;;;;11.69;91.34;99832.38;4940611;29;20063;-69
2021/12/26 09:56:28;;;;;;;17.70;9.25;;;;;;;11.72;91.79;99828.94;4941020;28;20048;-70
2021/12/26 09:59:04;;;;;;;21.35;8.90;;;;;;;11.65;91.57;99829.50;4940569;29;20057;-69
2021/12/26 10:01:37;;;;;;;18.77;9.13;;;;;;;12.00;91.22;99827.13;4940772;29;20079;-69
2021/12/26 10:04:16;;;;;;;;;;;;;;;11.98;89.71;99834.94;4922414;29;20062;-69
2021/12/26 10:06:44;;;;;;;18.83;8.50;;;;;;;11.88;90.30;99836.22;4919904;29;19930;-69
2021/12/26 10:09:12;;;;;;;16.75;9.82;;;;;;;11.89;90.69;99831.50;4921300;29;20072;-70
2021/12/26 10:11:45;;;;;;;15.20;10.55;;;;;;;11.97;90.32;99831.41;4921541;29;20052;-69
2021/12/26 10:14:18;;;;;;;18.45;8.95;;;;;;;11.91;90.55;99818.97;4921154;29;20075;-70
2021/12/26 10:16:49;;;;;;;15.13;8.30;;;;;;;12.08;89.76;99826.22;4920933;29;20626;-69
2021/12/26 10:19:16;;;;;;;16.95;8.23;;;;;;;11.88;90.22;99824.34;4921113;29;20056;-68
2021/12/26 10:22:13;;;;;;;21.10;8.13;;;;;;;11.91;90.75;99821.72;4921277;29;20053;-68
2021/12/26 10:24:42;;;;;;;16.10;8.73;;;;;;;11.90;90.81;99809.09;4921625;29;20315;-69
2021/12/26 10:27:16;;;;;;;15.07;8.40;;;;;;;11.93;91.15;99808.38;4920716;29;20075;-69
2021/12/26 10:29:47;;;;;;;16.90;8.15;;;;;;;11.99;91.15;99809.78;4921048;29;20056;-69
2021/12/26 10:32:37;;;;;;;16.48;8.07;;;;;;;11.85;91.25;99812.06;4920479;29;20060;-69
2021/12/26 10:35:16;;;;;;;17.75;8.27;;;;;;;11.91;91.23;99812.63;4921055;29;20056;-69
2021/12/26 10:37:47;;;;;;;14.07;8.00;;;;;;;11.90;91.72;99806.31;4919498;29;20056;-69
2021/12/26 10:40:24;;;;;;;15.50;8.25;;;;;;;11.85;91.94;99803.78;4919521;29;20059;-69
2021/12/26 10:42:54;;;;;;;14.73;7.78;;;;;;;12.08;91.22;99810.44;4919747;29;20055;-69
2021/12/26 10:45:27;;;;;;;18.33;9.40;;;;;;;12.00;91.34;99807.81;4920797;29;20063;-70
2021/12/26 10:47:57;;;;;;;13.50;8.57;;;;;;;12.10;91.30;99804.59;4919689;29;20052;-69
2021/12/26 10:50:27;;;;;;;22.88;13.82;;;;;;;12.12;91.79;99807.81;4919530;29;20063;-69
2021/12/26 10:52:58;;;;;;;23.67;13.80;;;;;;;12.06;91.40;99801.72;4920824;29;20072;-70
2021/12/26 10:55:39;;;;;;;18.52;10.95;;;;;;;12.14;91.36;99792.53;4920404;29;20063;-69
2021/12/26 10:58:12;;;;;;;23.85;17.65;;;;;;;12.01;92.52;99798.41;4920164;29;20060;-70
2021/12/26 11:00:45;;;;;;;21.15;14.40;;;;;;;12.02;92.35;99797.22;4920943;29;20056;-70
2021/12/26 11:03:26;;;;;;;14.30;9.63;;;;;;;12.19;92.37;99795.03;4931117;29;20055;-70
2021/12/26 11:06:06;;;;;;;15.68;8.50;;;;;;;12.20;92.41;99793.88;4939494;29;20055;-71
2021/12/26 11:08:41;;;;;;;16.67;8.73;;;;;;;12.01;92.76;99795.63;4939371;29;20489;-71
2021/12/26 11:11:18;;;;;;;15.85;8.43;;;;;;;11.90;93.79;99795.28;4939394;29;20047;-70
2021/12/26 11:13:46;;;;;;;15.52;8.13;;;;;;;12.07;94.06;99791.47;4939143;29;20051;-70
2021/12/26 11:16:15;;;;;;;20.33;8.98;;;;;;;12.02;93.80;99789.75;4938050;29;20055;-69
2021/12/26 11:18:43;;;;;;;17.50;8.00;;;;;;;12.04;94.02;99789.41;4938853;29;20051;-70
2021/12/26 11:21:13;;;;;;;15.23;7.70;;;;;;;12.08;93.91;99785.59;4953785;28;20074;-71
2021/12/26 11:23:42;;;;;;;14.15;7.85;;;;;;;11.92;94.78;99793.00;4939192;29;20416;-69
2021/12/26 11:26:16;;;;;;;22.55;8.70;;;;;;;12.03;94.45;99790.59;4939214;29;20051;-69
2021/12/26 11:28:46;;;;;;;37.10;22.45;;;;;;;12.09;94.01;99789.19;4938705;29;20056;-70
2021/12/26 11:31:16;;;;;;;21.98;12.63;;;;;;;12.00;94.38;99792.06;4938961;29;20043;-70
2021/12/26 11:33:43;;;;;;;;;;;;;;;12.04;94.19;99794.94;4939579;29;20078;-70
2021/12/26 11:36:11;;;;;;;15.90;8.93;;;;;;;12.12;94.31;99788.47;4937827;29;19926;-70
2021/12/26 11:38:40;;;;;;;14.27;5.70;;;;;;;12.32;92.94;99798.59;4937345;29;20051;-70
2021/12/26 11:41:36;;;;;;;8.45;4.53;;;;;;;12.27;91.54;99793.31;4937792;29;20047;-70